GEG weather

Spokane International Airport
Spokane, Washington, United States

Public forecast

Using degrees Fahrenheit for public forecast. Weather courtesy of forecast.io.

Current aviation weather report (METAR) for Spokane International Airport

Retrieved 2019/12/08 07:13 UTC (26 minutes ago):

KGEG 080713Z 30005KT 1/4SM R21/P6000FT BR BKN002 OVC003 04/03 A2974

Aviation forecast (TAF) for Spokane International Airport

Retrieved 2019/12/08 06:52 UTC (47 minutes ago):

TAF KGEG 080550Z 0806/0906 18004KT 5SM -SHRA BKN010 OVC025 FM080800 24005KT 1SM BR OVC007 FM081700 26005KT P6SM BKN007 FM081900 28006KT P6SM SCT010